Terminal Aerodrome Forecast
Issued by NWS

Home | Current Version | Previous Version | Text Only | Print | Product List | Glossary On
Versions: 1 2 3 4 5 6 7 8 9 10 11 12 13 14 15 16 17 18 19 20 21 22 23 24 25 26 27 28 29 30 31 32 33 34 35 36 37 38 39 40 41 42 43 44 45 46 47 48 49 50
000
FTUS42 KMFL 180653 AAA
TAFTMB
TAF AMD
KTMB 180653Z 1807/1906 VRB03KT P6SM VCSH SCT025 BKN050
      TEMPO 1807/1809 3SM SHRA BKN025
     FM181400 08006KT P6SM VCSH SCT020 BKN030
     FM181700 05009KT P6SM VCSH SCT025 BKN035
     FM190000 VRB05KT P6SM SCT025 BKN050 PROB30 1900/1906 6SM SHRA
      SCT025 BKN035=

USA.gov is the U.S. government's official web portal to all federal, state and local government web resources and services.